MacClenny, Florida
Current Conditions -  °F | °C
As of 8:50 AM on Saturday 20 Dec 2014 (Local Time) from KVQQ Reporting Station
Broken Clouds Broken Clouds  
Wind Chill: 54°   Ceiling: 10000
Heat Index: 54°   Visibility: 10mi
Dew Point: 52°   Wind: 0mph
Humidity: 94%   Direction: NA
Pressure: 30.13"   Gusts: NA
Location:  30.28°N, 82.12°W
Report Text: KVQQ 201350Z 00000KT 10SM BKN100 12/11 A3013
Loading
Personal Weather Stations






























Interactive Weather Map New forecast layout! Learn more

10-Day Weather Forecast

Advertisements
Track Severe Weather on mobile